createdAt,value
2018-08-07T00:01:53.108Z,99775.91
2018-08-07T00:04:27.731Z,99771.55
2018-08-07T00:06:57.905Z,99770.70
2018-08-07T00:09:41.360Z,99774.33
2018-08-07T00:12:09.183Z,99773.43
2018-08-07T00:14:37.730Z,99761.65
2018-08-07T00:17:04.739Z,99756.91
2018-08-07T00:19:31.647Z,99760.66
2018-08-07T00:21:58.655Z,99767.28
2018-08-07T00:24:26.215Z,99766.48
2018-08-07T00:26:53.227Z,99767.08
2018-08-07T00:29:20.231Z,99758.98
2018-08-07T00:31:48.327Z,99757.19
2018-08-07T00:34:15.268Z,99756.67
2018-08-07T00:36:42.240Z,99754.41
2018-08-07T00:39:10.507Z,99755.31
2018-08-07T00:41:37.675Z,99762.92
2018-08-07T00:44:04.635Z,99754.23
2018-08-07T00:46:32.194Z,99754.34
2018-08-07T00:48:59.190Z,99755.53
2018-08-07T00:51:26.115Z,99756.98
2018-08-07T00:53:53.114Z,99758.23
2018-08-07T00:56:26.579Z,99757.39
2018-08-07T00:58:56.082Z,99761.92
2018-08-07T01:01:26.195Z,99752.14
2018-08-07T01:04:02.326Z,99755.73
2018-08-07T01:06:37.862Z,99759.50
2018-08-07T01:09:17.829Z,99758.20
2018-08-07T01:11:46.887Z,99757.67
2018-08-07T01:14:18.248Z,99757.27
2018-08-07T01:16:46.731Z,99761.36
2018-08-07T01:19:14.174Z,99759.20
2018-08-07T01:21:41.854Z,99752.95
2018-08-07T01:24:08.803Z,99754.78
2018-08-07T01:26:35.772Z,99754.45
2018-08-07T01:29:02.730Z,99757.66
2018-08-07T01:31:29.672Z,99753.09
2018-08-07T01:33:56.623Z,99753.86
2018-08-07T01:36:23.591Z,99760.77
2018-08-07T01:38:50.564Z,99760.57
2018-08-07T01:41:27.222Z,99756.83
2018-08-07T01:44:05.635Z,99761.12
2018-08-07T01:46:41.899Z,99758.56
2018-08-07T01:49:08.890Z,99764.34
2018-08-07T01:51:35.843Z,99758.72
2018-08-07T01:54:02.807Z,99758.80
2018-08-07T01:56:29.746Z,99758.35
2018-08-07T01:58:56.776Z,99759.53
2018-08-07T02:01:24.210Z,99754.78
2018-08-07T02:03:51.173Z,99750.92
2018-08-07T02:06:20.495Z,99752.95
2018-08-07T02:08:59.347Z,99758.23
2018-08-07T02:11:37.883Z,99760.56
2018-08-07T02:14:07.136Z,99771.03
2018-08-07T02:16:34.301Z,99767.11
2018-08-07T02:19:01.276Z,99765.24
2018-08-07T02:21:28.723Z,99773.87
2018-08-07T02:23:55.678Z,99776.78
2018-08-07T02:26:23.716Z,99776.61
2018-08-07T02:28:51.485Z,99780.14
2018-08-07T02:31:26.399Z,99772.40
2018-08-07T02:34:01.632Z,99767.11
2018-08-07T02:36:30.011Z,99765.58
2018-08-07T02:39:06.481Z,99768.92
2018-08-07T02:41:35.876Z,99771.63
2018-08-07T02:44:05.143Z,99770.86
2018-08-07T02:46:32.137Z,99771.25
2018-08-07T02:49:01.186Z,99776.22
2018-08-07T02:51:28.778Z,99766.38
2018-08-07T02:53:55.799Z,99766.99
2018-08-07T02:56:22.831Z,99770.86
2018-08-07T02:58:51.088Z,99769.11
2018-08-07T03:01:18.067Z,99766.69
2018-08-07T03:03:45.020Z,99767.38
2018-08-07T03:06:12.195Z,99760.64
2018-08-07T03:08:40.764Z,99764.19
2018-08-07T03:11:11.430Z,99766.95
2018-08-07T03:13:39.280Z,99769.25
2018-08-07T03:16:07.207Z,99766.09
2018-08-07T03:18:41.297Z,99765.64
2018-08-07T03:21:11.515Z,99772.26
2018-08-07T03:23:38.491Z,99771.34
2018-08-07T03:26:05.438Z,99766.97
2018-08-07T03:28:32.400Z,99770.11
2018-08-07T03:30:59.449Z,99771.97
2018-08-07T03:33:26.383Z,99776.95
2018-08-07T03:35:53.375Z,99781.95
2018-08-07T03:38:20.334Z,99794.91
2018-08-07T03:40:48.315Z,99794.40
2018-08-07T03:43:15.231Z,99796.23
2018-08-07T03:45:42.923Z,99799.11
2018-08-07T03:48:11.843Z,99800.06
2018-08-07T03:50:39.827Z,99798.62
2018-08-07T03:53:19.107Z,99807.78
2018-08-07T03:55:58.608Z,99802.08
2018-08-07T03:58:33.251Z,99809.38
2018-08-07T04:01:02.906Z,99805.13
2018-08-07T04:03:29.843Z,99801.88
2018-08-07T04:05:56.781Z,99809.86
2018-08-07T04:08:23.746Z,99810.55
2018-08-07T04:10:50.707Z,99811.21
2018-08-07T04:13:17.664Z,99813.50
2018-08-07T04:15:44.618Z,99810.97
2018-08-07T04:18:11.579Z,99815.08
2018-08-07T04:20:38.531Z,99814.59
2018-08-07T04:23:05.498Z,99819.49
2018-08-07T04:25:32.466Z,99820.75
2018-08-07T04:27:59.415Z,99829.73
2018-08-07T04:30:27.399Z,99824.28
2018-08-07T04:32:54.370Z,99821.14
2018-08-07T04:35:21.307Z,99815.72
2018-08-07T04:37:48.370Z,99815.72
2018-08-07T04:40:15.315Z,99819.29
2018-08-07T04:42:42.364Z,99819.66
2018-08-07T04:45:12.190Z,99811.56
2018-08-07T04:47:39.169Z,99805.89
2018-08-07T04:50:08.051Z,99801.16
2018-08-07T04:52:35.463Z,99803.41
2018-08-07T04:55:02.383Z,99811.48
2018-08-07T04:57:29.896Z,99802.78
2018-08-07T04:59:56.819Z,99804.56
2018-08-07T05:02:23.773Z,99802.61
2018-08-07T05:04:50.751Z,99804.73
2018-08-07T05:07:17.682Z,99802.95
2018-08-07T05:09:45.678Z,99805.63
2018-08-07T05:12:13.663Z,99811.44
2018-08-07T05:14:40.607Z,99812.75
2018-08-07T05:17:08.379Z,99814.64
2018-08-07T05:19:35.356Z,99818.98
2018-08-07T05:22:02.336Z,99816.36
2018-08-07T05:24:30.332Z,99816.17
2018-08-07T05:26:57.255Z,99819.94
2018-08-07T05:29:24.421Z,99824.19
2018-08-07T05:31:51.359Z,99827.14
2018-08-07T05:34:19.957Z,99823.88
2018-08-07T05:36:58.156Z,99822.00
2018-08-07T05:39:45.171Z,99819.72
2018-08-07T05:42:13.326Z,99819.05
2018-08-07T05:44:48.892Z,99823.69
2018-08-07T05:47:32.587Z,99823.93
2018-08-07T05:49:59.675Z,99827.06
2018-08-07T05:52:29.633Z,99830.20
2018-08-07T05:54:56.531Z,99827.00
2018-08-07T05:57:25.458Z,99827.36
2018-08-07T05:59:52.407Z,99829.21
2018-08-07T06:02:19.375Z,99827.98
2018-08-07T06:04:46.335Z,99830.98
2018-08-07T06:07:20.571Z,99834.13
2018-08-07T06:09:52.468Z,99835.52
2018-08-07T06:12:19.393Z,99832.72
2018-08-07T06:14:46.343Z,99826.11
2018-08-07T06:17:13.416Z,99832.87
2018-08-07T06:19:40.379Z,99829.73
2018-08-07T06:22:07.957Z,99828.17
2018-08-07T06:24:34.915Z,99822.80
2018-08-07T06:27:01.859Z,99828.46
2018-08-07T06:29:28.884Z,99829.00
2018-08-07T06:31:55.883Z,99830.38
2018-08-07T06:34:22.850Z,99830.88
2018-08-07T06:36:50.807Z,99833.03
2018-08-07T06:39:17.770Z,99829.55
2018-08-07T06:41:45.003Z,99828.72
2018-08-07T06:44:11.976Z,99833.28
2018-08-07T06:46:39.900Z,99832.35
2018-08-07T06:49:22.508Z,99840.91
2018-08-07T06:51:49.847Z,99840.38
2018-08-07T06:54:20.742Z,99835.77
2018-08-07T06:56:52.779Z,99838.63
2018-08-07T06:59:19.743Z,99843.80
2018-08-07T07:01:47.415Z,99834.84
2018-08-07T07:04:14.855Z,99838.51
2018-08-07T07:06:41.858Z,99836.86
2018-08-07T07:09:10.415Z,99838.41
2018-08-07T07:11:37.413Z,99838.67
2018-08-07T07:14:05.068Z,99844.77
2018-08-07T07:16:32.047Z,99841.56
2018-08-07T07:18:59.040Z,99845.34
2018-08-07T07:21:26.051Z,99841.46
2018-08-07T07:23:52.998Z,99840.44
2018-08-07T07:26:26.243Z,99844.24
2018-08-07T07:28:57.191Z,99845.86
2018-08-07T07:31:26.201Z,99843.73
2018-08-07T07:33:59.517Z,99843.44
2018-08-07T07:36:31.023Z,99838.65
2018-08-07T07:39:16.719Z,99840.13
2018-08-07T07:41:45.670Z,99844.09
2018-08-07T07:44:12.595Z,99847.53
2018-08-07T07:46:39.595Z,99837.94
2018-08-07T07:49:06.555Z,99835.08
2018-08-07T07:51:33.488Z,99833.75
2018-08-07T07:54:01.537Z,99835.65
2018-08-07T07:56:28.442Z,99832.86
2018-08-07T07:58:55.382Z,99828.06
2018-08-07T08:01:23.367Z,99823.34
2018-08-07T08:03:50.339Z,99820.50
2018-08-07T08:06:17.271Z,99818.86
2018-08-07T08:08:44.334Z,99830.57
2018-08-07T08:11:11.286Z,99828.73
2018-08-07T08:13:38.250Z,99823.38
2018-08-07T08:16:05.354Z,99828.38
2018-08-07T08:18:32.399Z,99828.14
2018-08-07T08:20:59.338Z,99823.69
2018-08-07T08:23:26.275Z,99821.59
2018-08-07T08:25:53.228Z,99815.41
2018-08-07T08:28:20.184Z,99813.16
2018-08-07T08:30:47.169Z,99812.27
2018-08-07T08:33:23.155Z,99812.95
2018-08-07T08:35:59.718Z,99811.02
2018-08-07T08:38:27.509Z,99805.84
2018-08-07T08:40:59.293Z,99806.76
2018-08-07T08:43:33.835Z,99808.78
2018-08-07T08:46:00.828Z,99808.11
2018-08-07T08:48:27.858Z,99803.39
2018-08-07T08:50:54.767Z,99798.27
2018-08-07T08:53:21.732Z,99793.23
2018-08-07T08:55:48.683Z,99797.47
2018-08-07T08:58:24.568Z,99791.09
2018-08-07T09:00:56.099Z,99793.63
2018-08-07T09:03:31.623Z,99794.95
2018-08-07T09:06:04.129Z,99791.68
2018-08-07T09:08:42.763Z,99788.45
2018-08-07T09:11:10.482Z,99794.20
2018-08-07T09:13:37.420Z,99788.23
2018-08-07T09:16:04.383Z,99795.09
2018-08-07T09:18:31.389Z,99784.86
2018-08-07T09:20:58.437Z,99783.16
2018-08-07T09:23:25.355Z,99783.12
2018-08-07T09:25:52.467Z,99787.38
2018-08-07T09:28:19.262Z,99786.91
2018-08-07T09:30:46.224Z,99790.34
2018-08-07T09:33:13.376Z,99782.23
2018-08-07T09:35:41.059Z,99781.75
2018-08-07T09:38:28.558Z,99778.16
2018-08-07T09:40:56.900Z,99773.75
2018-08-07T09:43:38.562Z,99774.20
2018-08-07T09:46:08.544Z,99785.35
2018-08-07T09:48:35.990Z,99770.61
2018-08-07T09:51:03.009Z,99765.89
2018-08-07T09:53:29.968Z,99762.30
2018-08-07T09:55:56.991Z,99767.40
2018-08-07T09:58:24.586Z,99754.24
2018-08-07T10:00:57.186Z,99756.23
2018-08-07T10:03:24.111Z,99756.55
2018-08-07T10:05:51.055Z,99752.86
2018-08-07T10:08:18.021Z,99747.77
2018-08-07T10:10:44.979Z,99743.14
2018-08-07T10:13:11.940Z,99746.33
2018-08-07T10:15:38.892Z,99747.81
2018-08-07T10:18:05.891Z,99735.59
2018-08-07T10:20:32.886Z,99737.95
2018-08-07T10:23:00.651Z,99730.58
2018-08-07T10:25:27.839Z,99737.16
2018-08-07T10:27:54.861Z,99730.78
2018-08-07T10:30:22.982Z,99726.78
2018-08-07T10:32:50.591Z,99732.97
2018-08-07T10:35:17.600Z,99724.55
2018-08-07T10:37:45.194Z,99735.31
2018-08-07T10:40:13.630Z,99731.73
2018-08-07T10:42:40.724Z,99720.05
2018-08-07T10:45:22.583Z,99718.11
2018-08-07T10:47:50.067Z,99717.00
2018-08-07T10:50:22.618Z,99719.19
2018-08-07T10:52:49.843Z,99716.14
2018-08-07T10:55:17.458Z,99709.61
2018-08-07T10:57:45.691Z,99716.72
2018-08-07T11:00:17.799Z,99708.45
2018-08-07T11:02:45.780Z,99711.35
2018-08-07T11:05:12.807Z,99707.97
2018-08-07T11:07:40.095Z,99707.59
2018-08-07T11:10:08.352Z,99705.88
2018-08-07T11:12:36.315Z,99701.76
2018-08-07T11:15:06.767Z,99707.12
2018-08-07T11:17:37.295Z,99703.37
2018-08-07T11:20:16.089Z,99695.34
2018-08-07T11:22:56.655Z,99697.44
2018-08-07T11:25:32.299Z,99701.16
2018-08-07T11:27:59.832Z,99693.03
2018-08-07T11:30:27.884Z,99696.86
2018-08-07T11:32:56.098Z,99685.31
2018-08-07T11:35:30.693Z,99684.17
2018-08-07T11:38:10.781Z,99673.66
2018-08-07T11:40:41.350Z,99665.51
2018-08-07T11:43:16.924Z,99669.11
2018-08-07T11:45:44.813Z,99678.09
2018-08-07T11:48:11.755Z,99685.62
2018-08-07T11:50:38.707Z,99686.27
2018-08-07T11:53:05.657Z,99685.17
2018-08-07T11:55:32.671Z,99682.91
2018-08-07T11:57:59.679Z,99678.63
2018-08-07T12:00:30.473Z,99673.75
2018-08-07T12:02:57.505Z,99674.04
2018-08-07T12:05:24.482Z,99677.28
2018-08-07T12:07:51.678Z,99679.80
2018-08-07T12:10:27.195Z,99690.77
2018-08-07T12:13:05.659Z,99673.59
2018-08-07T12:15:35.911Z,99669.17
2018-08-07T12:18:11.982Z,99671.36
2018-08-07T12:20:48.135Z,99674.57
2018-08-07T12:23:15.155Z,99670.83
2018-08-07T12:25:42.092Z,99669.06
2018-08-07T12:28:09.023Z,99671.22
2018-08-07T12:30:36.043Z,99669.09
2018-08-07T12:33:03.104Z,99665.45
2018-08-07T12:35:30.147Z,99661.45
2018-08-07T12:37:57.092Z,99662.12
2018-08-07T12:40:26.662Z,99658.30
2018-08-07T12:42:56.637Z,99645.63
2018-08-07T12:45:23.588Z,99642.99
2018-08-07T12:47:50.543Z,99641.06
2018-08-07T12:50:26.986Z,99637.22
2018-08-07T12:53:12.203Z,99626.14
2018-08-07T12:55:40.803Z,99627.44
2018-08-07T12:58:19.987Z,99631.20
2018-08-07T13:00:55.462Z,99632.48
2018-08-07T13:03:23.234Z,99624.23
2018-08-07T13:05:57.465Z,99627.32
2018-08-07T13:08:33.941Z,99620.63
2018-08-07T13:11:01.064Z,99634.03
2018-08-07T13:13:29.283Z,99623.47
2018-08-07T13:15:56.319Z,99629.44
2018-08-07T13:18:23.261Z,99627.64
2018-08-07T13:20:50.295Z,99629.80
2018-08-07T13:23:18.214Z,99626.19
2018-08-07T13:25:45.179Z,99617.83
2018-08-07T13:28:12.178Z,99615.44
2018-08-07T13:30:39.207Z,99613.25
2018-08-07T13:33:06.246Z,99608.22
2018-08-07T13:35:33.195Z,99614.88
2018-08-07T13:38:00.180Z,99615.72
2018-08-07T13:40:27.333Z,99616.84
2018-08-07T13:42:54.287Z,99608.59
2018-08-07T13:45:26.160Z,99613.27
2018-08-07T13:47:54.689Z,99620.08
2018-08-07T13:50:22.972Z,99608.20
2018-08-07T13:52:50.724Z,99608.40
2018-08-07T13:55:18.682Z,99602.98
2018-08-07T13:57:46.129Z,99607.27
2018-08-07T14:00:21.030Z,99601.12
2018-08-07T14:02:48.656Z,99607.59
2018-08-07T14:05:18.743Z,99597.23
2018-08-07T14:07:50.395Z,99598.95
2018-08-07T14:10:26.941Z,99598.91
2018-08-07T14:13:04.879Z,99596.20
2018-08-07T14:15:32.010Z,99599.84
2018-08-07T14:18:02.875Z,99590.77
2018-08-07T14:20:40.043Z,99591.63
2018-08-07T14:23:22.635Z,99588.19
2018-08-07T14:25:57.991Z,99585.30
2018-08-07T14:28:27.751Z,99573.81
2018-08-07T14:31:05.320Z,99577.45
2018-08-07T14:33:48.800Z,99579.38
2018-08-07T14:36:16.789Z,99578.98
2018-08-07T14:38:43.808Z,99574.59
2018-08-07T14:41:10.732Z,99569.86
2018-08-07T14:43:37.706Z,99567.94
2018-08-07T14:46:05.434Z,99565.00
2018-08-07T14:48:41.846Z,99569.66
2018-08-07T14:51:12.640Z,99577.50
2018-08-07T14:53:50.674Z,99570.17
2018-08-07T14:56:17.688Z,99564.64
2018-08-07T14:58:45.289Z,99576.20
2018-08-07T15:01:15.391Z,99578.88
2018-08-07T15:03:45.951Z,99586.18
2018-08-07T15:06:16.096Z,99585.95
2018-08-07T15:08:43.914Z,99588.23
2018-08-07T15:11:10.923Z,99583.98
2018-08-07T15:13:38.007Z,99577.74
2018-08-07T15:16:05.032Z,99584.83
2018-08-07T15:18:32.036Z,99583.55
2018-08-07T15:20:59.015Z,99588.45
2018-08-07T15:23:25.951Z,99590.48
2018-08-07T15:25:52.930Z,99591.44
2018-08-07T15:28:19.898Z,99584.02
2018-08-07T15:30:46.864Z,99588.00
2018-08-07T15:33:13.851Z,99580.22
2018-08-07T15:35:40.920Z,99580.86
2018-08-07T15:38:07.928Z,99580.78
2018-08-07T15:40:34.887Z,99574.79
2018-08-07T15:43:01.872Z,99580.42
2018-08-07T15:45:28.836Z,99573.72
2018-08-07T15:47:55.747Z,99575.03
2018-08-07T15:50:22.812Z,99570.78
2018-08-07T15:52:53.890Z,99576.34
2018-08-07T15:55:22.323Z,99575.97
2018-08-07T15:57:49.311Z,99574.06
2018-08-07T16:00:20.554Z,99580.14
2018-08-07T16:02:47.541Z,99562.97
2018-08-07T16:05:14.763Z,99568.88
2018-08-07T16:07:42.408Z,99577.64
2018-08-07T16:10:12.370Z,99576.53
2018-08-07T16:12:39.423Z,99574.92
2018-08-07T16:15:07.520Z,99573.89
2018-08-07T16:17:34.627Z,99569.00
2018-08-07T16:20:02.230Z,99567.77
2018-08-07T16:22:40.892Z,99556.83
2018-08-07T16:25:16.951Z,99562.00
2018-08-07T16:27:53.329Z,99553.59
2018-08-07T16:30:23.642Z,99556.95
2018-08-07T16:32:50.563Z,99547.99
2018-08-07T16:35:17.543Z,99542.36
2018-08-07T16:37:45.713Z,99548.94
2018-08-07T16:40:19.013Z,99535.81
2018-08-07T16:43:02.528Z,99536.25
2018-08-07T16:45:29.986Z,99531.50
2018-08-07T16:48:12.461Z,99531.26
2018-08-07T16:50:42.444Z,99536.78
2018-08-07T16:53:09.403Z,99531.39
2018-08-07T16:55:36.392Z,99528.59
2018-08-07T16:58:03.359Z,99532.14
2018-08-07T17:00:30.305Z,99531.89
2018-08-07T17:02:57.295Z,99535.63
2018-08-07T17:05:24.935Z,99534.92
2018-08-07T17:07:51.896Z,99539.15
2018-08-07T17:10:24.911Z,99537.31
2018-08-07T17:12:53.908Z,99527.59
2018-08-07T17:15:26.685Z,99519.95
2018-08-07T17:18:02.880Z,99516.06
2018-08-07T17:20:34.741Z,99520.83
2018-08-07T17:23:01.695Z,99520.83
2018-08-07T17:25:28.663Z,99515.95
2018-08-07T17:27:55.636Z,99510.19
2018-08-07T17:30:25.505Z,99507.56
2018-08-07T17:32:53.378Z,99504.39
2018-08-07T17:35:22.276Z,99502.22
2018-08-07T17:37:52.088Z,99498.31
2018-08-07T17:40:20.595Z,99504.25
2018-08-07T17:42:48.731Z,99505.64
2018-08-07T17:45:19.859Z,99500.42
2018-08-07T17:47:47.084Z,99496.88
2018-08-07T17:50:21.432Z,99501.48
2018-08-07T17:52:48.611Z,99495.08
2018-08-07T17:55:15.740Z,99490.11
2018-08-07T17:57:42.688Z,99492.84
2018-08-07T18:00:11.824Z,99488.66
2018-08-07T18:02:39.331Z,99482.61
2018-08-07T18:05:07.187Z,99483.17
2018-08-07T18:07:34.195Z,99481.06
2018-08-07T18:10:01.137Z,99485.41
2018-08-07T18:12:28.123Z,99479.86
2018-08-07T18:14:55.045Z,99475.68
2018-08-07T18:17:22.065Z,99471.39
2018-08-07T18:19:49.145Z,99469.31
2018-08-07T18:22:16.257Z,99468.02
2018-08-07T18:24:43.281Z,99476.70
2018-08-07T18:27:10.284Z,99486.97
2018-08-07T18:29:37.215Z,99486.94
2018-08-07T18:32:04.127Z,99494.39
2018-08-07T18:34:31.116Z,99497.45
2018-08-07T18:36:58.646Z,99488.22
2018-08-07T18:39:25.648Z,99491.41
2018-08-07T18:41:52.645Z,99488.55
2018-08-07T18:44:21.014Z,99490.72
2018-08-07T18:46:51.959Z,99487.95
2018-08-07T18:49:18.907Z,99495.02
2018-08-07T18:51:45.862Z,99496.52
2018-08-07T18:54:12.821Z,99502.28
2018-08-07T18:56:39.799Z,99506.48
2018-08-07T18:59:07.088Z,99511.63
2018-08-07T19:01:36.063Z,99525.41
2018-08-07T19:04:03.991Z,99531.55
2018-08-07T19:06:31.106Z,99528.96
2018-08-07T19:08:58.176Z,99530.98
2018-08-07T19:11:27.234Z,99541.97
2018-08-07T19:13:54.347Z,99551.28
2018-08-07T19:16:21.486Z,99559.55
2018-08-07T19:18:48.605Z,99566.85
2018-08-07T19:21:15.880Z,99569.41
2018-08-07T19:23:44.027Z,99571.41
2018-08-07T19:26:11.899Z,99578.38
2018-08-07T19:28:39.852Z,99583.02
2018-08-07T19:31:07.891Z,99594.35
2018-08-07T19:33:35.408Z,99599.91
2018-08-07T19:36:04.066Z,99607.27
2018-08-07T19:38:32.917Z,99622.77
2018-08-07T19:40:59.843Z,99628.66
2018-08-07T19:43:26.810Z,99627.31
2018-08-07T19:45:53.854Z,99624.38
2018-08-07T19:48:20.715Z,99625.98
2018-08-07T19:50:47.694Z,99617.44
2018-08-07T19:53:15.045Z,99627.03
2018-08-07T19:55:42.049Z,99624.11
2018-08-07T19:58:08.975Z,99619.84
2018-08-07T20:00:35.925Z,99622.51
2018-08-07T20:03:05.047Z,99616.09
2018-08-07T20:05:32.004Z,99620.89
2018-08-07T20:07:58.988Z,99610.47
2018-08-07T20:10:25.916Z,99618.52
2018-08-07T20:12:52.871Z,99613.92
2018-08-07T20:15:22.787Z,99612.05
2018-08-07T20:17:51.170Z,99607.09
2018-08-07T20:20:19.569Z,99611.45
2018-08-07T20:22:46.540Z,99616.17
2018-08-07T20:25:13.475Z,99617.11
2018-08-07T20:27:40.435Z,99618.22
2018-08-07T20:30:12.407Z,99623.45
2018-08-07T20:32:41.372Z,99622.86
2018-08-07T20:35:10.768Z,99627.77
2018-08-07T20:37:41.238Z,99628.58
2018-08-07T20:40:18.690Z,99630.48
2018-08-07T20:42:52.835Z,99625.49
2018-08-07T20:45:21.618Z,99631.95
2018-08-07T20:47:55.891Z,99635.23
2018-08-07T20:50:26.947Z,99631.38
2018-08-07T20:53:08.912Z,99630.24
2018-08-07T20:55:39.927Z,99630.41
2018-08-07T20:58:11.538Z,99632.47
2018-08-07T21:00:55.183Z,99633.94
2018-08-07T21:03:31.985Z,99625.16
2018-08-07T21:06:00.016Z,99624.72
2018-08-07T21:08:44.531Z,99625.63
2018-08-07T21:11:11.465Z,99620.00
2018-08-07T21:13:38.412Z,99621.00
2018-08-07T21:16:05.441Z,99616.77
2018-08-07T21:18:32.335Z,99614.10
2018-08-07T21:21:03.568Z,99615.04
2018-08-07T21:23:36.011Z,99618.24
2018-08-07T21:26:19.796Z,99609.64
2018-08-07T21:28:51.194Z,99619.14
2018-08-07T21:31:26.951Z,99624.25
2018-08-07T21:34:03.102Z,99632.87
2018-08-07T21:36:31.486Z,99662.20
2018-08-07T21:39:07.032Z,99683.03
2018-08-07T21:41:43.583Z,99670.84
2018-08-07T21:44:13.995Z,99664.14
2018-08-07T21:46:56.987Z,99675.92
2018-08-07T21:49:26.431Z,99646.48
2018-08-07T21:51:57.411Z,99652.23
2018-08-07T21:54:25.710Z,99673.57
2018-08-07T21:57:00.300Z,99638.44
2018-08-07T21:59:30.743Z,99639.50
2018-08-07T22:02:01.000Z,99655.56
2018-08-07T22:04:37.851Z,99636.72
2018-08-07T22:07:09.459Z,99630.00
2018-08-07T22:09:48.451Z,99631.48
2018-08-07T22:12:17.444Z,99619.05
2018-08-07T22:14:57.039Z,99607.55
2018-08-07T22:17:24.014Z,99614.34
2018-08-07T22:19:58.806Z,99614.72
2018-08-07T22:22:33.778Z,99605.72
2018-08-07T22:25:01.462Z,99591.42
2018-08-07T22:27:28.442Z,99585.47
2018-08-07T22:29:55.389Z,99585.16
2018-08-07T22:32:22.333Z,99565.53
2018-08-07T22:34:50.019Z,99561.67
2018-08-07T22:37:17.529Z,99558.99
2018-08-07T22:39:44.445Z,99556.45
2018-08-07T22:42:11.455Z,99542.17
2018-08-07T22:44:38.349Z,99539.47
2018-08-07T22:47:07.650Z,99539.25
2018-08-07T22:49:47.718Z,99533.41
2018-08-07T22:52:18.833Z,99527.31
2018-08-07T22:54:54.545Z,99524.17
2018-08-07T22:57:22.102Z,99516.48
2018-08-07T22:59:49.056Z,99509.59
2018-08-07T23:02:17.074Z,99500.39
2018-08-07T23:04:48.317Z,99506.08
2018-08-07T23:07:17.734Z,99502.27
2018-08-07T23:09:46.419Z,99506.22
2018-08-07T23:12:14.996Z,99502.70
2018-08-07T23:14:42.020Z,99504.25
2018-08-07T23:17:09.966Z,99497.89
2018-08-07T23:19:37.538Z,99493.39
2018-08-07T23:22:04.519Z,99502.44
2018-08-07T23:24:32.295Z,99502.95
2018-08-07T23:26:59.249Z,99501.09
2018-08-07T23:29:26.193Z,99509.58
2018-08-07T23:31:53.150Z,99509.81
2018-08-07T23:34:20.075Z,99501.33
2018-08-07T23:36:47.587Z,99501.97
2018-08-07T23:39:14.538Z,99504.11
2018-08-07T23:41:41.505Z,99512.11
2018-08-07T23:44:09.999Z,99520.89
2018-08-07T23:46:37.030Z,99518.77
2018-08-07T23:49:09.198Z,99517.02
2018-08-07T23:51:45.172Z,99503.27
2018-08-07T23:54:20.329Z,99492.78
2018-08-07T23:56:52.846Z,99493.57
2018-08-07T23:59:21.313Z,99492.75
